This is the latest recevied weather packets stored in our database for station/object IU1OLT-5. If no packets are shown the sender has not sent any weather packets the latest 10 day(s).
| Time | Temp. | Humidity | Pressure | Rain* | Wind** | Luminosity | Snow |
|---|---|---|---|---|---|---|---|
| 1777754495 | 15.56° C | 54% | 1021.8 hPa | 0 mm | - | 0 W/m² | - |
| 1777753595 | 15.56° C | 56% | 1021.8 hPa | 0 mm | - | 0 W/m² | - |
| 1777752695 | 14.44° C | 59% | 1021.7 hPa | 0 mm | - | 0 W/m² | - |
| 1777751794 | 13.89° C | 64% | 1021.4 hPa | 0 mm | - | 0 W/m² | - |
| 1777750894 | 14.44° C | 60% | 1021.6 hPa | 0 mm | - | 0 W/m² | - |
| 1777749994 | 14.44° C | 63% | 1021.5 hPa | 0 mm | - | 0 W/m² | - |
| 1777749094 | 15° C | 63% | 1021.7 hPa | 0 mm | - | 0 W/m² | - |
| 1777748194 | 15° C | 68% | 1021.4 hPa | 0 mm | - | 0 W/m² | - |
| 1777747294 | 16.11° C | 64% | 1021.7 hPa | 0 mm | - | 0 W/m² | - |
| 1777746394 | 16.67° C | 51% | 1021.5 hPa | 0 mm | - | 2 W/m² | - |
| 1777745493 | 16.11° C | 60% | 1021.5 hPa | 0 mm | - | 8 W/m² | - |
| 1777744593 | 16.11° C | 67% | 1021.4 hPa | 0 mm | - | 17 W/m² | - |
| 1777743693 | 16.67° C | 64% | 1021.6 hPa | 0 mm | - | 26 W/m² | - |
| 1777742793 | 17.22° C | 58% | 1021.7 hPa | 0 mm | - | 49 W/m² | - |
| 1777741893 | 17.78° C | 55% | 1021.5 hPa | 0 mm | - | 68 W/m² | - |
| 1777740993 | 17.78° C | 50% | 1021.6 hPa | 0 mm | - | 98 W/m² | - |
| 1777740092 | 17.78° C | 52% | 1021.5 hPa | 0 mm | - | 119 W/m² | - |
| 1777739192 | 18.33° C | 48% | 1021.8 hPa | 0 mm | - | 155 W/m² | - |
| 1777738292 | 18.33° C | 47% | 1022 hPa | 0 mm | - | 162 W/m² | - |
| 1777737392 | 18.33° C | 48% | 1022.1 hPa | 0 mm | - | 158 W/m² | - |
| 1777736492 | 18.89° C | 45% | 1022.1 hPa | 0 mm | - | 233 W/m² | - |
| 1777735592 | 18.89° C | 44% | 1022.3 hPa | 0 mm | - | 284 W/m² | - |
| 1777734691 | 18.33° C | 45% | 1022.5 hPa | 0 mm | - | 326 W/m² | - |
| 1777733791 | 19.44° C | 43% | 1022.5 hPa | 0 mm | - | 367 W/m² | - |
| 1777732891 | 19.44° C | 41% | 1022.8 hPa | 0 mm | - | 403 W/m² | - |
* Rain latest hour (hover to see other rain measurements)
** Current wind speed in m/s (hover to see current wind gust speed)